createdAt,value
2022-10-28T00:00:21.531Z,10.10
2022-10-28T00:02:51.212Z,7.57
2022-10-28T00:05:19.522Z,13.10
2022-10-28T00:07:47.208Z,12.93
2022-10-28T00:10:15.331Z,9.53
2022-10-28T00:12:43.011Z,7.27
2022-10-28T00:15:11.436Z,7.43
2022-10-28T00:17:39.096Z,7.53
2022-10-28T00:20:09.904Z,8.60
2022-10-28T00:22:37.596Z,6.37
2022-10-28T00:25:05.667Z,9.93
2022-10-28T00:27:33.334Z,6.60
2022-10-28T00:30:01.567Z,10.27
2022-10-28T00:32:29.918Z,6.47
2022-10-28T00:34:58.199Z,6.67
2022-10-28T00:37:27.201Z,6.30
2022-10-28T00:39:54.881Z,6.40
2022-10-28T00:42:22.785Z,6.33
2022-10-28T00:44:58.225Z,6.37
2022-10-28T00:47:43.213Z,7.27
2022-10-28T00:50:25.595Z,9.40
2022-10-28T00:52:56.695Z,6.17
2022-10-28T00:55:24.848Z,8.20
2022-10-28T00:57:56.580Z,6.50
2022-10-28T01:00:24.919Z,6.60
2022-10-28T01:02:52.603Z,6.20
2022-10-28T01:05:22.309Z,6.47
2022-10-28T01:07:51.486Z,6.50
2022-10-28T01:10:21.563Z,9.20
2022-10-28T01:12:57.674Z,6.70
2022-10-28T01:15:29.847Z,9.30
2022-10-28T01:18:01.294Z,6.97
2022-10-28T01:20:42.393Z,8.70
2022-10-28T01:23:14.964Z,6.00
2022-10-28T01:26:10.051Z,5.47
2022-10-28T01:28:58.398Z,6.43
2022-10-28T01:31:34.759Z,6.07
2022-10-28T01:34:09.418Z,6.40
2022-10-28T01:36:39.138Z,5.50
2022-10-28T01:39:13.702Z,5.40
2022-10-28T01:41:46.099Z,6.37
2022-10-28T01:44:16.804Z,5.93
2022-10-28T01:46:48.299Z,6.40
2022-10-28T01:49:18.091Z,5.20
2022-10-28T01:51:46.396Z,6.10
2022-10-28T01:54:15.889Z,7.90
2022-10-28T01:56:43.557Z,5.40
2022-10-28T01:59:13.669Z,5.30
2022-10-28T02:01:41.481Z,6.67
2022-10-28T02:04:10.671Z,7.90
2022-10-28T02:06:38.377Z,5.93
2022-10-28T02:09:12.298Z,5.60
2022-10-28T02:12:03.550Z,6.07
2022-10-28T02:14:40.456Z,5.20
2022-10-28T02:17:11.543Z,5.57
2022-10-28T02:19:44.660Z,5.60
2022-10-28T02:22:16.618Z,5.80
2022-10-28T02:24:49.748Z,6.60
2022-10-28T02:27:18.983Z,5.37
2022-10-28T02:29:48.415Z,6.10
2022-10-28T02:32:18.297Z,4.70
2022-10-28T02:34:48.392Z,7.50
2022-10-28T02:37:18.546Z,5.77
2022-10-28T02:39:48.589Z,6.83
2022-10-28T02:42:18.618Z,7.73
2022-10-28T02:44:49.345Z,5.23
2022-10-28T02:47:19.399Z,5.63
2022-10-28T02:49:51.073Z,7.40
2022-10-28T02:52:18.946Z,4.77
2022-10-28T02:54:48.954Z,5.30
2022-10-28T02:57:17.767Z,5.67
2022-10-28T02:59:49.780Z,4.93
2022-10-28T03:02:17.482Z,5.57
2022-10-28T03:04:45.217Z,5.23
2022-10-28T03:07:14.240Z,4.97
2022-10-28T03:09:42.341Z,6.07
2022-10-28T03:12:10.005Z,5.50
2022-10-28T03:14:38.302Z,5.30
2022-10-28T03:17:07.661Z,4.80
2022-10-28T03:19:35.972Z,4.73
2022-10-28T03:22:03.654Z,5.23
2022-10-28T03:24:32.675Z,5.77
2022-10-28T03:27:00.375Z,5.80
2022-10-28T03:29:28.365Z,5.20
2022-10-28T03:31:56.176Z,4.93
2022-10-28T03:34:24.034Z,5.03
2022-10-28T03:36:52.391Z,5.10
2022-10-28T03:39:20.295Z,5.03
2022-10-28T03:41:49.503Z,5.13
2022-10-28T03:44:17.325Z,5.90
2022-10-28T03:46:45.630Z,5.40
2022-10-28T03:49:13.498Z,5.40
2022-10-28T03:51:41.508Z,4.90
2022-10-28T03:54:09.341Z,4.73
2022-10-28T03:56:39.569Z,5.80
2022-10-28T03:59:09.910Z,4.83
2022-10-28T04:01:38.501Z,6.00
2022-10-28T04:04:06.772Z,5.43
2022-10-28T04:06:34.855Z,5.07
2022-10-28T04:09:02.701Z,4.90
2022-10-28T04:11:30.921Z,5.17
2022-10-28T04:13:58.571Z,4.90
2022-10-28T04:16:28.037Z,5.10
2022-10-28T04:18:55.712Z,4.50
2022-10-28T04:21:23.718Z,5.27
2022-10-28T04:23:51.591Z,4.80
2022-10-28T04:26:20.049Z,4.70
2022-10-28T04:28:47.706Z,6.43
2022-10-28T04:31:15.840Z,4.90
2022-10-28T04:33:44.859Z,4.90
2022-10-28T04:36:12.804Z,5.37
2022-10-28T04:38:40.634Z,4.60
2022-10-28T04:41:09.824Z,4.20
2022-10-28T04:43:37.666Z,4.50
2022-10-28T04:46:06.136Z,4.20
2022-10-28T04:48:34.156Z,4.60
2022-10-28T04:51:03.898Z,5.10
2022-10-28T04:53:31.672Z,4.90
2022-10-28T04:55:59.940Z,4.33
2022-10-28T04:58:27.917Z,4.80
2022-10-28T05:00:56.312Z,4.13
2022-10-28T05:03:24.269Z,4.80
2022-10-28T05:05:52.142Z,4.50
2022-10-28T05:08:21.819Z,4.93
2022-10-28T05:10:51.051Z,3.83
2022-10-28T05:13:18.745Z,4.73
2022-10-28T05:15:48.568Z,4.60
2022-10-28T05:18:16.529Z,6.13
2022-10-28T05:20:44.512Z,4.10
2022-10-28T05:23:12.480Z,4.40
2022-10-28T05:25:41.769Z,4.00
2022-10-28T05:28:09.995Z,4.30
2022-10-28T05:30:37.979Z,4.87
2022-10-28T05:33:06.352Z,4.13
2022-10-28T05:35:34.313Z,4.37
2022-10-28T05:38:02.526Z,4.13
2022-10-28T05:40:32.560Z,4.07
2022-10-28T05:43:02.263Z,4.50
2022-10-28T05:47:59.267Z,4.60
2022-10-28T05:50:27.164Z,7.20
2022-10-28T05:52:55.991Z,4.27
2022-10-28T05:55:24.563Z,4.13
2022-10-28T05:57:53.586Z,4.00
2022-10-28T06:00:23.859Z,3.87
2022-10-28T06:02:51.889Z,4.60
2022-10-28T06:05:19.984Z,4.90
2022-10-28T06:07:48.373Z,3.97
2022-10-28T06:10:16.629Z,3.87
2022-10-28T06:12:43.407Z,4.50
2022-10-28T06:15:11.070Z,4.20
2022-10-28T06:17:40.484Z,4.57
2022-10-28T06:20:09.360Z,4.97
2022-10-28T06:22:37.261Z,4.00
2022-10-28T06:25:06.056Z,3.70
2022-10-28T06:27:33.933Z,4.40
2022-10-28T06:30:01.856Z,4.40
2022-10-28T06:32:29.714Z,4.77
2022-10-28T06:34:59.053Z,3.77
2022-10-28T06:37:26.921Z,4.50
2022-10-28T06:39:57.732Z,3.80
2022-10-28T06:42:25.710Z,4.03
2022-10-28T06:44:54.441Z,4.00
2022-10-28T06:47:23.774Z,4.20
2022-10-28T06:49:51.658Z,4.07
2022-10-28T06:52:21.133Z,3.70
2022-10-28T06:54:49.102Z,3.90
2022-10-28T06:57:16.953Z,3.73
2022-10-28T06:59:45.310Z,3.80
2022-10-28T07:02:13.270Z,4.23
2022-10-28T07:04:41.773Z,4.40
2022-10-28T07:07:09.509Z,5.90
2022-10-28T07:09:39.981Z,3.63
2022-10-28T07:12:08.792Z,4.30
2022-10-28T07:14:36.916Z,3.87
2022-10-28T07:17:04.647Z,3.70
2022-10-28T07:19:32.418Z,3.70
2022-10-28T07:22:00.125Z,3.67
2022-10-28T07:27:01.730Z,3.67
2022-10-28T07:29:29.979Z,3.67
2022-10-28T07:31:58.467Z,4.00
2022-10-28T07:34:27.525Z,3.60
2022-10-28T07:36:55.935Z,3.70
2022-10-28T07:39:24.252Z,3.90
2022-10-28T07:41:52.154Z,4.03
2022-10-28T07:44:21.695Z,3.70
2022-10-28T07:46:51.903Z,3.73
2022-10-28T07:49:21.209Z,4.40
2022-10-28T07:51:50.994Z,4.03
2022-10-28T07:54:18.696Z,3.77
2022-10-28T07:56:46.702Z,3.40
2022-10-28T07:59:15.299Z,3.40
2022-10-28T08:01:44.660Z,3.90
2022-10-28T08:04:12.743Z,4.10
2022-10-28T08:06:40.712Z,4.17
2022-10-28T08:09:08.816Z,4.23
2022-10-28T08:11:37.318Z,3.60
2022-10-28T08:14:05.214Z,4.10
2022-10-28T08:16:33.595Z,4.13
2022-10-28T08:19:07.451Z,3.33
2022-10-28T08:21:35.879Z,3.40
2022-10-28T08:24:03.897Z,4.07
2022-10-28T08:26:31.726Z,4.00
2022-10-28T08:29:01.571Z,3.83
2022-10-28T08:31:29.466Z,3.80
2022-10-28T08:33:57.255Z,4.83
2022-10-28T08:36:26.566Z,5.40
2022-10-28T08:38:54.479Z,4.07
2022-10-28T08:41:29.888Z,6.33
2022-10-28T08:44:05.416Z,3.70
2022-10-28T08:46:44.017Z,3.93
2022-10-28T08:49:13.710Z,3.70
2022-10-28T08:51:46.238Z,4.17
2022-10-28T08:54:16.162Z,3.53
2022-10-28T08:56:46.569Z,4.50
2022-10-28T08:59:15.379Z,4.00
2022-10-28T09:01:45.731Z,3.50
2022-10-28T09:04:17.527Z,6.30
2022-10-28T09:06:47.225Z,5.00
2022-10-28T09:09:18.944Z,8.77
2022-10-28T09:11:55.199Z,4.30
2022-10-28T09:14:32.102Z,8.53
2022-10-28T09:17:04.991Z,5.33
2022-10-28T09:19:44.595Z,3.90
2022-10-28T09:22:25.771Z,3.60
2022-10-28T09:24:55.594Z,6.50
2022-10-28T09:27:43.561Z,8.63
2022-10-28T09:30:27.210Z,4.03
2022-10-28T09:33:01.669Z,3.60
2022-10-28T09:35:31.771Z,5.00
2022-10-28T09:38:04.043Z,3.93
2022-10-28T09:40:32.420Z,7.90
2022-10-28T09:43:02.086Z,6.33
2022-10-28T09:45:31.386Z,3.00
2022-10-28T09:48:00.848Z,13.90
2022-10-28T09:50:29.843Z,4.23
2022-10-28T09:53:03.527Z,4.70
2022-10-28T09:55:32.620Z,9.97
2022-10-28T09:58:01.049Z,7.60
2022-10-28T10:00:28.737Z,4.83
2022-10-28T10:02:58.429Z,11.20
2022-10-28T10:05:26.347Z,7.40
2022-10-28T10:07:57.030Z,4.97
2022-10-28T10:10:27.961Z,6.67
2022-10-28T10:12:58.320Z,5.93
2022-10-28T10:15:31.245Z,3.83
2022-10-28T10:17:59.519Z,6.00
2022-10-28T10:20:27.694Z,5.30
2022-10-28T10:22:55.737Z,5.90
2022-10-28T10:25:30.321Z,9.57
2022-10-28T10:28:00.465Z,8.90
2022-10-28T10:30:30.496Z,6.27
2022-10-28T10:32:58.201Z,7.50
2022-10-28T10:35:27.401Z,7.83
2022-10-28T10:37:56.389Z,9.60
2022-10-28T10:40:26.384Z,4.40
2022-10-28T10:43:12.914Z,6.47
2022-10-28T10:45:41.239Z,9.93
2022-10-28T10:48:13.397Z,10.87
2022-10-28T10:50:41.722Z,7.67
2022-10-28T10:53:17.987Z,4.63
2022-10-28T10:55:50.974Z,5.90
2022-10-28T10:58:21.350Z,7.50
2022-10-28T11:00:53.441Z,5.50
2022-10-28T11:03:23.490Z,12.70
2022-10-28T11:06:05.511Z,11.70
2022-10-28T11:08:40.867Z,11.60
2022-10-28T11:11:15.047Z,9.73
2022-10-28T11:13:46.156Z,15.53
2022-10-28T11:16:25.507Z,17.40
2022-10-28T11:18:53.804Z,13.63
2022-10-28T11:21:49.415Z,11.23
2022-10-28T11:24:25.951Z,21.97
2022-10-28T11:26:57.509Z,12.93
2022-10-28T11:29:25.824Z,12.27
2022-10-28T11:32:06.225Z,21.03
2022-10-28T11:34:46.009Z,14.80
2022-10-28T11:37:16.007Z,8.10
2022-10-28T11:39:47.951Z,13.17
2022-10-28T11:42:22.839Z,17.53
2022-10-28T11:44:54.026Z,32.03
2022-10-28T11:47:33.290Z,10.97
2022-10-28T11:50:12.692Z,12.83
2022-10-28T11:52:49.673Z,14.93
2022-10-28T11:55:22.100Z,16.43
2022-10-28T11:57:57.453Z,14.13
2022-10-28T12:00:30.186Z,15.30
2022-10-28T12:03:13.529Z,16.50
2022-10-28T12:05:43.068Z,15.30
2022-10-28T12:08:17.363Z,17.10
2022-10-28T12:10:55.023Z,21.50
2022-10-28T12:13:29.849Z,17.47
2022-10-28T12:16:00.596Z,18.30
2022-10-28T12:18:31.331Z,20.60
2022-10-28T12:21:00.860Z,23.07
2022-10-28T12:23:28.771Z,20.50
2022-10-28T12:25:57.715Z,15.43
2022-10-28T12:28:29.149Z,28.10
2022-10-28T12:30:57.014Z,20.90
2022-10-28T12:33:27.040Z,15.33
2022-10-28T12:35:56.502Z,18.70
2022-10-28T12:38:26.557Z,18.20
2022-10-28T12:40:56.793Z,17.40
2022-10-28T12:43:28.660Z,18.60
2022-10-28T12:45:56.526Z,21.53
2022-10-28T12:48:29.712Z,24.07
2022-10-28T12:51:00.400Z,33.37
2022-10-28T12:53:32.186Z,22.57
2022-10-28T12:56:00.609Z,22.07
2022-10-28T12:58:33.242Z,15.87
2022-10-28T13:01:02.931Z,12.50
2022-10-28T13:03:30.889Z,13.77
2022-10-28T13:06:07.803Z,16.90
2022-10-28T13:08:44.547Z,12.93
2022-10-28T13:11:39.989Z,13.17
2022-10-28T13:14:12.155Z,12.50
2022-10-28T13:16:55.076Z,14.03
2022-10-28T13:19:44.551Z,23.83
2022-10-28T13:22:21.593Z,17.23
2022-10-28T13:24:54.645Z,20.67
2022-10-28T13:27:22.437Z,13.60
2022-10-28T13:29:52.776Z,13.43
2022-10-28T13:32:35.765Z,12.90
2022-10-28T13:35:12.863Z,12.23
2022-10-28T13:37:41.759Z,10.10
2022-10-28T13:40:21.715Z,12.13
2022-10-28T13:42:50.236Z,9.50
2022-10-28T13:45:48.908Z,9.27
2022-10-28T13:48:53.193Z,14.87
2022-10-28T13:51:34.825Z,8.70
2022-10-28T13:54:02.606Z,11.93
2022-10-28T13:56:39.165Z,9.17
2022-10-28T13:59:20.637Z,16.77
2022-10-28T14:02:28.421Z,9.10
2022-10-28T14:04:55.714Z,10.90
2022-10-28T14:07:26.922Z,14.90
2022-10-28T14:09:58.518Z,21.13
2022-10-28T14:12:31.665Z,16.30
2022-10-28T14:15:05.894Z,19.97
2022-10-28T14:17:39.624Z,14.20
2022-10-28T14:20:20.655Z,18.60
2022-10-28T14:22:48.510Z,11.50
2022-10-28T14:25:54.710Z,15.20
2022-10-28T14:28:54.633Z,14.23
2022-10-28T14:31:44.784Z,17.40
2022-10-28T14:34:43.872Z,17.43
2022-10-28T14:37:39.578Z,19.47
2022-10-28T14:40:15.368Z,13.17
2022-10-28T14:42:52.885Z,14.27
2022-10-28T14:45:25.104Z,21.53
2022-10-28T14:48:43.828Z,19.07
2022-10-28T14:51:15.296Z,17.97
2022-10-28T14:53:43.255Z,16.67
2022-10-28T14:56:13.476Z,12.97
2022-10-28T14:58:41.976Z,15.90
2022-10-28T15:01:20.643Z,20.33
2022-10-28T15:03:49.650Z,12.70
2022-10-28T15:06:30.314Z,12.10
2022-10-28T15:08:58.283Z,11.30
2022-10-28T15:11:26.916Z,15.30
2022-10-28T15:13:54.886Z,13.13
2022-10-28T15:16:23.495Z,10.73
2022-10-28T15:18:51.963Z,12.40
2022-10-28T15:21:21.391Z,16.50
2022-10-28T15:24:01.606Z,12.40
2022-10-28T15:26:30.072Z,12.37
2022-10-28T15:28:58.054Z,13.87
2022-10-28T15:31:25.925Z,13.77
2022-10-28T15:33:54.138Z,13.47
2022-10-28T15:36:22.691Z,11.17
2022-10-28T15:38:51.187Z,14.17
2022-10-28T15:41:49.374Z,8.60
2022-10-28T15:44:32.787Z,12.37
2022-10-28T15:47:00.787Z,10.07
2022-10-28T15:49:37.087Z,10.43
2022-10-28T15:52:32.097Z,11.07
2022-10-28T15:55:00.477Z,11.53
2022-10-28T15:57:30.335Z,13.20
2022-10-28T16:00:21.494Z,13.53
2022-10-28T16:02:56.051Z,10.80
2022-10-28T16:05:48.138Z,9.20
2022-10-28T16:08:18.039Z,9.17
2022-10-28T16:10:46.787Z,8.27
2022-10-28T16:13:18.609Z,8.80
2022-10-28T16:15:47.532Z,8.00
2022-10-28T16:18:15.194Z,7.97
2022-10-28T16:20:42.989Z,9.00
2022-10-28T16:23:15.675Z,9.03
2022-10-28T16:25:44.081Z,9.70
2022-10-28T16:28:18.500Z,14.80
2022-10-28T16:30:46.774Z,8.07
2022-10-28T16:33:14.718Z,13.33
2022-10-28T16:35:43.244Z,7.87
2022-10-28T16:38:12.762Z,8.97
2022-10-28T16:40:56.331Z,11.80
2022-10-28T16:43:26.031Z,10.90
2022-10-28T16:45:55.022Z,7.60
2022-10-28T16:48:24.119Z,11.90
2022-10-28T16:50:52.691Z,8.57
2022-10-28T16:53:21.206Z,8.40
2022-10-28T16:55:49.152Z,8.07
2022-10-28T16:58:18.786Z,7.43
2022-10-28T17:00:49.746Z,6.37
2022-10-28T17:03:17.549Z,8.97
2022-10-28T17:05:45.460Z,7.30
2022-10-28T17:08:13.863Z,9.63
2022-10-28T17:10:41.849Z,10.97
2022-10-28T17:13:10.775Z,7.33
2022-10-28T17:15:38.557Z,13.57
2022-10-28T17:18:08.235Z,10.30
2022-10-28T17:20:36.052Z,6.70
2022-10-28T17:23:05.250Z,8.47
2022-10-28T17:25:33.247Z,7.77
2022-10-28T17:28:02.158Z,7.67
2022-10-28T17:30:30.117Z,6.27
2022-10-28T17:32:58.597Z,9.43
2022-10-28T17:35:28.355Z,11.47
2022-10-28T17:37:57.758Z,7.07
2022-10-28T17:40:25.828Z,9.83
2022-10-28T17:42:54.789Z,14.17
2022-10-28T17:45:22.708Z,9.93
2022-10-28T17:47:50.481Z,11.13
2022-10-28T17:50:18.227Z,9.17
2022-10-28T17:52:48.079Z,6.37
2022-10-28T17:55:16.239Z,9.17
2022-10-28T17:57:46.105Z,5.87
2022-10-28T18:00:15.223Z,9.60
2022-10-28T18:02:43.733Z,10.40
2022-10-28T18:05:11.569Z,10.57
2022-10-28T18:07:39.765Z,10.47
2022-10-28T18:10:10.230Z,7.30
2022-10-28T18:12:38.461Z,9.10
2022-10-28T18:15:08.933Z,8.63
2022-10-28T18:17:37.609Z,8.43
2022-10-28T18:20:06.772Z,10.73
2022-10-28T18:22:34.784Z,10.60
2022-10-28T18:25:03.103Z,6.60
2022-10-28T18:27:32.733Z,7.97
2022-10-28T18:30:01.051Z,7.30
2022-10-28T18:32:29.024Z,9.60
2022-10-28T18:34:57.104Z,8.40
2022-10-28T18:37:25.166Z,7.57
2022-10-28T18:39:53.640Z,7.73
2022-10-28T18:42:22.085Z,11.83
2022-10-28T18:44:58.772Z,10.50
2022-10-28T18:47:26.594Z,11.70
2022-10-28T18:49:55.022Z,7.07
2022-10-28T18:52:22.953Z,8.63
2022-10-28T18:54:50.864Z,7.10
2022-10-28T18:57:19.631Z,9.93
2022-10-28T19:00:16.741Z,10.83
2022-10-28T19:02:36.978Z,10.77
2022-10-28T19:05:05.374Z,7.73
2022-10-28T19:07:33.171Z,13.20
2022-10-28T19:10:01.020Z,6.50
2022-10-28T19:12:29.344Z,8.50
2022-10-28T19:14:57.320Z,10.53
2022-10-28T19:17:25.134Z,13.70
2022-10-28T19:19:54.262Z,10.53
2022-10-28T19:22:22.829Z,5.83
2022-10-28T19:24:50.706Z,7.57
2022-10-28T19:27:19.143Z,12.10
2022-10-28T19:29:47.604Z,7.50
2022-10-28T19:32:16.118Z,7.17
2022-10-28T19:34:44.048Z,7.60
2022-10-28T19:37:13.701Z,5.33
2022-10-28T19:39:41.438Z,5.80
2022-10-28T19:42:09.195Z,6.53
2022-10-28T19:44:37.393Z,7.30
2022-10-28T19:47:05.272Z,5.60
2022-10-28T19:49:36.397Z,8.97
2022-10-28T19:52:06.308Z,7.43
2022-10-28T19:54:35.891Z,7.67
2022-10-28T19:57:03.780Z,9.23
2022-10-28T19:59:32.408Z,8.17
2022-10-28T20:02:00.495Z,7.33
2022-10-28T20:04:28.970Z,6.07
2022-10-28T20:06:57.609Z,8.10
2022-10-28T20:09:28.980Z,9.67
2022-10-28T20:11:58.404Z,8.87
2022-10-28T20:14:26.690Z,7.50
2022-10-28T20:16:54.484Z,6.63
2022-10-28T20:19:22.750Z,7.73
2022-10-28T20:21:51.370Z,7.03
2022-10-28T20:24:20.843Z,8.33
2022-10-28T20:26:48.752Z,9.17
2022-10-28T20:29:18.611Z,8.87
2022-10-28T20:31:46.584Z,7.77
2022-10-28T20:34:14.946Z,7.17
2022-10-28T20:36:44.090Z,6.77
2022-10-28T20:39:13.913Z,9.53
2022-10-28T20:41:42.130Z,7.93
2022-10-28T20:44:10.481Z,12.33
2022-10-28T20:46:39.865Z,6.47
2022-10-28T20:49:08.661Z,12.17
2022-10-28T20:51:36.607Z,9.23
2022-10-28T20:54:05.032Z,11.10
2022-10-28T20:56:33.704Z,9.13
2022-10-28T20:59:02.025Z,14.97
2022-10-28T21:01:30.856Z,8.83
2022-10-28T21:04:01.455Z,12.57
2022-10-28T21:06:29.425Z,5.67
2022-10-28T21:08:57.467Z,7.07
2022-10-28T21:11:27.782Z,7.40
2022-10-28T21:13:56.389Z,5.80
2022-10-28T21:16:24.767Z,4.73
2022-10-28T21:18:52.635Z,5.53
2022-10-28T21:21:22.012Z,6.63
2022-10-28T21:23:49.750Z,8.30
2022-10-28T21:26:17.573Z,6.47
2022-10-28T21:28:45.362Z,5.40
2022-10-28T21:31:14.529Z,7.60
2022-10-28T21:33:42.956Z,7.27
2022-10-28T21:36:12.529Z,7.87
2022-10-28T21:38:41.654Z,7.10
2022-10-28T21:41:11.887Z,9.37
2022-10-28T21:43:40.635Z,7.87
2022-10-28T21:46:09.139Z,8.13
2022-10-28T21:48:37.322Z,7.90
2022-10-28T21:51:10.000Z,7.10
2022-10-28T21:53:44.101Z,7.93
2022-10-28T21:56:16.957Z,8.50
2022-10-28T21:58:45.863Z,7.20
2022-10-28T22:01:15.175Z,6.07
2022-10-28T22:03:43.055Z,5.10
2022-10-28T22:06:11.217Z,7.27
2022-10-28T22:08:38.961Z,8.63
2022-10-28T22:11:09.164Z,5.40
2022-10-28T22:13:36.825Z,5.43
2022-10-28T22:16:06.182Z,5.60
2022-10-28T22:18:34.256Z,13.50
2022-10-28T22:21:04.983Z,8.50
2022-10-28T22:23:32.722Z,6.27
2022-10-28T22:26:02.668Z,6.07
2022-10-28T22:28:31.805Z,6.73
2022-10-28T22:31:00.457Z,9.00
2022-10-28T22:33:28.222Z,9.50
2022-10-28T22:35:59.156Z,8.20
2022-10-28T22:38:27.017Z,5.83
2022-10-28T22:41:03.482Z,6.07
2022-10-28T22:43:32.685Z,6.17
2022-10-28T22:46:01.148Z,6.30
2022-10-28T22:48:29.307Z,7.43
2022-10-28T22:50:57.348Z,7.43
2022-10-28T22:53:25.406Z,8.50
2022-10-28T22:55:54.078Z,5.33
2022-10-28T22:58:22.073Z,8.00
2022-10-28T23:00:51.584Z,10.07
2022-10-28T23:03:19.637Z,10.00
2022-10-28T23:05:47.405Z,10.80
2022-10-28T23:08:16.533Z,9.70
2022-10-28T23:10:44.271Z,9.47
2022-10-28T23:13:13.086Z,14.87
2022-10-28T23:15:41.101Z,8.50
2022-10-28T23:18:10.353Z,11.90
2022-10-28T23:20:38.090Z,13.03
2022-10-28T23:23:06.352Z,15.60
2022-10-28T23:25:34.083Z,15.53
2022-10-28T23:28:01.822Z,9.50
2022-10-28T23:30:29.571Z,11.87
2022-10-28T23:32:58.443Z,15.43
2022-10-28T23:35:27.538Z,15.53
2022-10-28T23:37:56.005Z,11.87
2022-10-28T23:40:24.046Z,10.53
2022-10-28T23:42:52.574Z,14.23
2022-10-28T23:45:20.563Z,8.60
2022-10-28T23:47:48.353Z,7.93
2022-10-28T23:50:16.465Z,9.40
2022-10-28T23:52:46.278Z,9.00
2022-10-28T23:55:14.464Z,11.23
2022-10-28T23:57:42.803Z,19.87
